Time;durP1;ratioP1;P1;durP2;ratioP2;P2;SDS_P1;SDS_P2;PMS_P1;PMS_P2;Temp;Humidity;BMP_temperature;BMP_pressure;BME280_temperature;BME280_humidity;BME280_pressure;Samples;Min_cycle;Max_cycle;Signal;HPM_P1;HPM_P2
2023/05/14 00:00:05;;;;;;;;;;;;;;;12.18;56.29;102108.58;108973;1257;66991;-85
2023/05/14 00:02:53;;;;;;;;;;;;;;;12.14;56.33;102109.47;108901;1254;72621;-87
2023/05/14 00:05:20;;;;;;;;;;;;;;;12.12;56.41;102108.86;108994;1257;59454;-86
2023/05/14 00:07:47;;;;;;;;;;;;;;;12.07;56.41;102107.78;108891;1257;125826;-86
2023/05/14 00:10:13;;;;;;;;;;;;;;;12.01;56.57;102105.27;109075;1254;75025;-86
2023/05/14 00:12:40;;;;;;;;;;;;;;;11.94;56.67;102102.33;108855;1259;124546;-87
2023/05/14 00:15:07;;;;;;;;;;;;;;;11.87;56.83;102097.61;108967;1257;71779;-86
2023/05/14 00:17:35;;;;;;;;;;;;;;;11.80;56.96;102096.63;108693;1255;237667;-86
2023/05/14 00:20:05;;;;;;;;;;;;;;;11.74;57.09;102099.18;108692;1256;125583;-86
2023/05/14 00:22:33;;;;;;;;;;;;;;;11.69;57.27;102097.73;108860;1257;74474;-86
2023/05/14 00:24:59;;;;;;;;;;;;;;;11.64;57.50;102096.84;108726;1260;124968;-85
2023/05/14 00:27:26;;;;;;;;;;;;;;;11.59;57.73;102097.53;108916;1254;71836;-86
2023/05/14 00:29:53;;;;;;;;;;;;;;;11.56;57.77;102097.56;109040;1254;59837;-86
2023/05/14 00:32:20;;;;;;;;;;;;;;;11.54;57.90;102094.64;108831;1257;124694;-86
2023/05/14 00:34:47;;;;;;;;;;;;;;;11.53;58.03;102095.85;108932;1257;74733;-86
2023/05/14 00:37:14;;;;;;;;;;;;;;;11.53;58.15;102098.11;108870;1254;125241;-86
2023/05/14 00:39:41;;;;;;;;;;;;;;;11.54;58.25;102101.49;108970;1257;71401;-86
2023/05/14 00:42:08;;;;;;;;;;;;;;;11.55;58.39;102104.69;108769;1257;59419;-85
2023/05/14 00:44:35;;;;;;;;;;;;;;;11.55;58.44;102101.38;108909;1254;124599;-86
2023/05/14 00:47:01;;;;;;;;;;;;;;;11.56;58.35;102098.43;108991;1254;73616;-85
2023/05/14 00:49:28;;;;;;;;;;;;;;;11.57;58.51;102097.23;108804;1257;125113;-86
2023/05/14 00:51:57;;;;;;;;;;;;;;;11.55;58.62;102098.58;108786;1262;72790;-86
2023/05/14 00:54:24;;;;;;;;;;;;;;;11.53;58.64;102091.81;108764;1259;125455;-86
2023/05/14 00:56:51;;;;;;;;;;;;;;;11.49;58.81;102094.10;109010;1259;59498;-86
2023/05/14 00:59:18;;;;;;;;;;;;;;;11.44;58.96;102093.73;109074;1254;74954;-86
2023/05/14 01:01:45;;;;;;;;;;;;;;;11.41;59.03;102091.99;108973;1254;124843;-86
2023/05/14 01:04:12;;;;;;;;;;;;;;;11.38;59.10;102089.77;109086;1254;72692;-86
2023/05/14 01:06:50;;;;;;;;;;;;;;;11.38;59.30;102090.63;108809;1253;124869;-86
2023/05/14 01:09:17;;;;;;;;;;;;;;;11.38;59.25;102089.05;108949;1254;59110;-86
2023/05/14 01:11:59;;;;;;;;;;;;;;;11.40;59.33;102090.16;109053;1257;73358;-86
2023/05/14 01:14:35;;;;;;;;;;;;;;;11.40;59.45;102093.70;108813;1254;124292;-85
2023/05/14 01:17:03;;;;;;;;;;;;;;;11.40;59.53;102090.55;109055;1257;73197;-86
2023/05/14 01:19:41;;;;;;;;;;;;;;;11.40;59.51;102091.41;108847;1256;124669;-87
2023/05/14 01:22:09;;;;;;;;;;;;;;;11.38;59.65;102086.25;108937;1257;60634;-87
2023/05/14 01:24:37;;;;;;;;;;;;;;;11.37;59.77;102086.38;108868;1257;124898;-87
2023/05/14 01:27:36;;;;;;;;;;;;;;;11.37;59.83;102083.76;108947;1257;65888;-86
2023/05/14 01:30:09;;;;;;;;;;;;;;;11.39;59.83;102086.83;108450;1266;73260;-86
2023/05/14 01:32:36;;;;;;;;;;;;;;;11.40;59.96;102084.58;108413;1262;124173;-86
2023/05/14 01:35:03;;;;;;;;;;;;;;;11.41;59.91;102086.70;108366;1265;59402;-86
2023/05/14 01:37:30;;;;;;;;;;;;;;;11.42;59.96;102085.36;108348;1262;124779;-86
2023/05/14 01:39:57;;;;;;;;;;;;;;;11.43;59.93;102084.34;108442;1262;67505;-86
2023/05/14 01:42:24;;;;;;;;;;;;;;;11.42;59.97;102080.79;108275;1263;124584;-86
2023/05/14 01:44:51;;;;;;;;;;;;;;;11.40;59.99;102080.20;108269;1262;59830;-86
2023/05/14 01:47:18;;;;;;;;;;;;;;;11.37;60.13;102073.38;108417;1262;59340;-86
2023/05/14 01:49:45;;;;;;;;;;;;;;;11.34;60.12;102076.58;108440;1262;124976;-86
2023/05/14 01:52:12;;;;;;;;;;;;;;;11.29;60.23;102076.73;108554;1262;67080;-86
2023/05/14 01:54:42;;;;;;;;;;;;;;;11.24;60.28;102075.65;108374;1266;124860;-85
2023/05/14 01:57:08;;;;;;;;;;;;;;;11.20;60.39;102077.89;108346;1268;59481;-86
2023/05/14 01:59:35;;;;;;;;;;;;;;;11.15;60.46;102073.98;108512;1263;60764;-86
2023/05/14 02:02:02;;;;;;;;;;;;;;;11.10;60.46;102072.70;108455;1265;124167;-86
2023/05/14 02:04:29;;;;;;;;;;;;;;;11.04;60.66;102077.38;108431;1263;65881;-85
2023/05/14 02:06:56;;;;;;;;;;;;;;;10.97;60.68;102075.34;108652;1257;125859;-85
2023/05/14 02:09:23;;;;;;;;;;;;;;;10.91;60.88;102073.80;108912;1254;59433;-85
2023/05/14 02:11:50;;;;;;;;;;;;;;;10.84;61.06;102073.52;108864;1254;60914;-85
2023/05/14 02:14:17;;;;;;;;;;;;;;;10.79;61.11;102072.59;108922;1259;125167;-86
2023/05/14 02:16:44;;;;;;;;;;;;;;;10.74;61.39;102073.73;108893;1260;66412;-86
2023/05/14 02:19:11;;;;;;;;;;;;;;;10.67;61.50;102074.15;108900;1254;124293;-86
2023/05/14 02:21:37;;;;;;;;;;;;;;;10.63;61.61;102073.23;108859;1259;59397;-86
2023/05/14 02:24:04;;;;;;;;;;;;;;;10.59;61.70;102074.29;108947;1255;60107;-86
2023/05/14 02:26:31;;;;;;;;;;;;;;;10.55;61.82;102075.31;108947;1254;125535;-86
2023/05/14 02:28:58;;;;;;;;;;;;;;;10.50;61.95;102075.30;108902;1254;67539;-86
2023/05/14 02:31:25;;;;;;;;;;;;;;;10.47;61.99;102076.20;108822;1259;124773;-86
2023/05/14 02:33:52;;;;;;;;;;;;;;;10.42;62.11;102074.73;108985;1258;60870;-86
2023/05/14 02:36:19;;;;;;;;;;;;;;;10.36;62.22;102073.04;108845;1254;124889;-86
2023/05/14 02:38:46;;;;;;;;;;;;;;;10.31;62.29;102070.19;108888;1254;75371;-86
2023/05/14 02:41:13;;;;;;;;;;;;;;;10.26;62.44;102071.86;108855;1259;67650;-85
2023/05/14 02:43:40;;;;;;;;;;;;;;;10.23;62.61;102076.09;108908;1257;124690;-86
2023/05/14 02:46:06;;;;;;;;;;;;;;;10.20;62.62;102075.77;109078;1254;59615;-86
2023/05/14 02:48:33;;;;;;;;;;;;;;;10.17;62.73;102073.70;109020;1254;124249;-86
2023/05/14 02:51:01;;;;;;;;;;;;;;;10.14;62.76;102072.30;109083;1254;74766;-86
2023/05/14 02:53:28;;;;;;;;;;;;;;;10.11;62.97;102068.69;109129;1254;67494;-86
2023/05/14 02:55:55;;;;;;;;;;;;;;;10.10;63.05;102067.42;108879;1259;125542;-85
2023/05/14 02:58:21;;;;;;;;;;;;;;;10.08;63.12;102062.44;108977;1258;59389;-84
2023/05/14 03:00:48;;;;;;;;;;;;;;;10.08;63.31;102062.06;108902;1259;124885;-85
2023/05/14 03:03:15;;;;;;;;;;;;;;;10.09;63.43;102060.55;108835;1262;74866;-84
2023/05/14 03:05:42;;;;;;;;;;;;;;;10.12;63.54;102058.07;108825;1261;67656;-85
2023/05/14 03:08:09;;;;;;;;;;;;;;;10.18;63.66;102058.49;108867;1254;124967;-85
2023/05/14 03:10:36;;;;;;;;;;;;;;;10.25;63.71;102054.60;109037;1259;59434;-85
2023/05/14 03:13:03;;;;;;;;;;;;;;;10.33;63.77;102056.95;108984;1259;124937;-85
2023/05/14 03:15:30;;;;;;;;;;;;;;;10.44;63.70;102058.01;109004;1254;73576;-86
2023/05/14 03:17:57;;;;;;;;;;;;;;;10.58;63.73;102059.14;108885;1260;67616;-85
2023/05/14 03:20:25;;;;;;;;;;;;;;;10.72;63.70;102057.88;108811;1258;124058;-85
2023/05/14 03:22:52;;;;;;;;;;;;;;;10.89;63.61;102051.40;109065;1254;59413;-85
2023/05/14 03:25:19;;;;;;;;;;;;;;;11.07;63.47;102054.84;108903;1254;125272;-86
2023/05/14 03:27:46;;;;;;;;;;;;;;;11.25;63.36;102056.69;109011;1254;73061;-86
2023/05/14 03:30:13;;;;;;;;;;;;;;;11.45;63.21;102055.42;108985;1255;65912;-85
2023/05/14 03:32:40;;;;;;;;;;;;;;;11.69;62.91;102055.55;108954;1254;125611;-85
2023/05/14 03:35:07;;;;;;;;;;;;;;;11.97;62.82;102053.71;108867;1255;59367;-84
2023/05/14 03:37:34;;;;;;;;;;;;;;;12.43;62.83;102053.26;108758;1257;125152;-86
2023/05/14 03:40:01;;;;;;;;;;;;;;;13.48;63.14;102047.84;108869;1256;73318;-86
2023/05/14 03:42:28;;;;;;;;;;;;;;;14.77;62.39;102037.04;108909;1254;124206;-86
2023/05/14 03:44:55;;;;;;;;;;;;;;;16.05;60.97;102031.86;108985;1260;71495;-86
2023/05/14 03:47:22;;;;;;;;;;;;;;;17.24;59.39;102038.77;108977;1258;59483;-86
2023/05/14 03:49:50;;;;;;;;;;;;;;;18.30;57.61;102034.27;108741;1256;124363;-86
2023/05/14 03:52:16;;;;;;;;;;;;;;;19.11;55.55;102030.45;108924;1254;74807;-86
2023/05/14 03:54:43;;;;;;;;;;;;;;;19.78;54.36;102032.85;108911;1254;124324;-86
2023/05/14 03:57:10;;;;;;;;;;;;;;;20.69;53.28;102032.48;109005;1254;73219;-86
2023/05/14 03:59:37;;;;;;;;;;;;;;;21.63;52.04;102029.09;108877;1253;60078;-86
2023/05/14 04:02:04;;;;;;;;;;;;;;;22.52;50.51;102030.36;108976;1254;124293;-85
2023/05/14 04:04:31;;;;;;;;;;;;;;;23.31;49.09;102025.81;108883;1256;75176;-85
2023/05/14 04:06:58;;;;;;;;;;;;;;;24.09;47.88;102027.63;108895;1257;125192;-85
2023/05/14 04:09:25;;;;;;;;;;;;;;;24.80;46.54;102022.48;108850;1257;72294;-86
2023/05/14 04:11:52;;;;;;;;;;;;;;;25.43;45.19;102018.66;109108;1254;59719;-86
2023/05/14 04:14:19;;;;;;;;;;;;;;;26.03;43.93;102014.55;108906;1254;125363;-85
2023/05/14 04:16:46;;;;;;;;;;;;;;;26.63;42.85;102015.88;108802;1254;75378;-92
2023/05/14 04:19:13;;;;;;;;;;;;;;;27.10;41.58;102015.52;108808;1258;124913;-88
2023/05/14 04:21:40;;;;;;;;;;;;;;;27.53;40.51;102010.72;108769;1257;71159;-90
2023/05/14 04:24:07;;;;;;;;;;;;;;;27.95;39.85;102009.61;108707;1257;59421;-85
2023/05/14 04:26:34;;;;;;;;;;;;;;;28.45;38.89;102007.48;108837;1254;125283;-88
2023/05/14 04:29:02;;;;;;;;;;;;;;;28.96;37.99;102009.16;109144;1254;75165;-84
2023/05/14 04:31:29;;;;;;;;;;;;;;;29.51;37.36;102003.76;108800;1254;124873;-84
2023/05/14 04:33:56;;;;;;;;;;;;;;;30.15;36.44;102000.40;108807;1254;71322;-84
2023/05/14 04:36:22;;;;;;;;;;;;;;;30.67;35.78;102000.61;108834;1257;124724;-84
2023/05/14 04:38:50;;;;;;;;;;;;;;;31.25;34.95;102002.64;108988;1254;59357;-85
2023/05/14 04:41:17;;;;;;;;;;;;;;;31.66;34.08;102004.34;108991;1258;66138;-86
2023/05/14 04:43:45;;;;;;;;;;;;;;;32.07;33.38;102001.48;108824;1260;124662;-86
2023/05/14 04:46:12;;;;;;;;;;;;;;;32.35;32.76;102000.54;108792;1257;62712;-83
2023/05/14 04:48:39;;;;;;;;;;;;;;;32.62;32.05;101999.86;108769;1254;124934;-83
2023/05/14 04:51:06;;;;;;;;;;;;;;;33.00;31.65;101999.98;108902;1254;59880;-84
2023/05/14 04:53:34;;;;;;;;;;;;;;;33.45;31.30;101999.58;108886;1254;64772;-84
2023/05/14 04:56:04;;;;;;;;;;;;;;;34.05;30.56;101997.73;108958;1253;126625;-84
2023/05/14 04:58:31;;;;;;;;;;;;;;;34.34;29.60;101997.42;108998;1257;64452;-84
2023/05/14 05:00:58;;;;;;;;;;;;;;;34.34;29.08;101989.95;108736;1257;125805;-83
2023/05/14 05:03:25;;;;;;;;;;;;;;;34.47;29.16;101987.58;109015;1259;59346;-84
2023/05/14 05:05:52;;;;;;;;;;;;;;;34.79;28.60;101988.15;109011;1254;66419;-84
2023/05/14 05:08:19;;;;;;;;;;;;;;;35.24;28.19;101990.83;108716;1256;126108;-86
2023/05/14 05:10:46;;;;;;;;;;;;;;;35.55;27.76;101986.95;109087;1254;64562;-87
2023/05/14 05:13:14;;;;;;;;;;;;;;;35.72;27.38;101989.77;108766;1254;124531;-87
2023/05/14 05:15:41;;;;;;;;;;;;;;;35.80;26.98;101988.55;108860;1260;59311;-84
2023/05/14 05:18:08;;;;;;;;;;;;;;;35.90;26.79;101989.95;108807;1261;66477;-80
2023/05/14 05:20:35;;;;;;;;;;;;;;;36.18;26.39;101986.73;108717;1254;123980;-80
2023/05/14 05:23:02;;;;;;;;;;;;;;;36.24;26.00;101982.57;109012;1256;64018;-81
2023/05/14 05:25:29;;;;;;;;;;;;;;;36.38;26.02;101986.96;108698;1260;125372;-80
2023/05/14 05:27:56;;;;;;;;;;;;;;;36.64;25.84;101984.13;108835;1257;59185;-81
2023/05/14 05:30:22;;;;;;;;;;;;;;;36.75;25.51;101982.51;108863;1254;124958;-81
2023/05/14 05:32:49;;;;;;;;;;;;;;;36.43;24.86;101986.43;109024;1254;59241;-81
2023/05/14 05:35:16;;;;;;;;;;;;;;;34.78;24.48;101981.70;108880;1270;64426;-81
2023/05/14 05:37:44;;;;;;;;;;;;;;;32.55;25.09;101980.60;108788;1257;125613;-81
2023/05/14 05:40:12;;;;;;;;;;;;;;;30.55;26.13;101977.66;108931;1257;59790;-81
2023/05/14 05:42:40;;;;;;;;;;;;;;;28.85;27.16;101979.85;108685;1258;124931;-81
2023/05/14 05:45:07;;;;;;;;;;;;;;;27.40;28.12;101979.80;108740;1257;65634;-81
2023/05/14 05:47:33;;;;;;;;;;;;;;;26.09;29.04;101975.58;108918;1270;72396;-81
2023/05/14 05:50:00;;;;;;;;;;;;;;;25.13;30.31;101977.98;108853;1257;124972;-80
2023/05/14 05:52:33;;;;;;;;;;;;;;;24.32;31.23;101979.65;108877;1256;59427;-80
2023/05/14 05:55:00;;;;;;;;;;;;;;;23.54;32.08;101980.12;108948;1257;125022;-83
2023/05/14 05:57:27;;;;;;;;;;;;;;;22.98;32.90;101983.41;108865;1254;66536;-84
2023/05/14 05:59:54;;;;;;;;;;;;;;;22.53;33.43;101981.52;109048;1254;72696;-90
2023/05/14 06:02:21;;;;;;;;;;;;;;;22.14;34.16;101981.67;108994;1254;124756;-87
2023/05/14 06:04:48;;;;;;;;;;;;;;;21.75;34.71;101980.50;109112;1254;60120;-88
2023/05/14 06:07:15;;;;;;;;;;;;;;;21.47;35.29;101982.85;108943;1257;124607;-91
2023/05/14 06:09:44;;;;;;;;;;;;;;;21.22;35.67;101984.78;109004;1260;65891;-91
2023/05/14 06:12:11;;;;;;;;;;;;;;;20.98;36.11;101979.94;108992;1254;73126;-91
2023/05/14 06:15:01;;;;;;;;;;;;;;;20.74;36.57;101983.11;108817;1256;123855;-91
2023/05/14 06:17:28;;;;;;;;;;;;;;;20.52;37.12;101984.25;108941;1254;60309;-89
2023/05/14 06:20:06;;;;;;;;;;;;;;;20.39;37.47;101981.02;108952;1259;124496;-90
2023/05/14 06:22:33;;;;;;;;;;;;;;;20.28;37.77;101980.95;108909;1256;66374;-91
2023/05/14 06:25:03;;;;;;;;;;;;;;;20.12;38.16;101977.50;108768;1254;125625;-90
2023/05/14 06:27:50;;;;;;;;;;;;;;;19.98;38.59;101978.66;108990;1260;59082;-92
2023/05/14 06:30:17;;;;;;;;;;;;;;;19.92;38.92;101980.41;108730;1257;59818;-82
2023/05/14 06:32:44;;;;;;;;;;;;;;;19.82;39.20;101979.98;108881;1254;76297;-82
2023/05/14 06:35:11;;;;;;;;;;;;;;;19.76;39.44;101978.17;108907;1254;68228;-82
2023/05/14 06:37:38;;;;;;;;;;;;;;;19.68;39.54;101977.02;108685;1254;124728;-82
2023/05/14 06:40:05;;;;;;;;;;;;;;;19.62;39.68;101975.91;108960;1254;59450;-82
2023/05/14 06:42:32;;;;;;;;;;;;;;;19.54;39.83;101974.60;108702;1261;123293;-82
2023/05/14 06:44:59;;;;;;;;;;;;;;;19.50;40.12;101975.46;108752;1257;75518;-82
2023/05/14 06:47:26;;;;;;;;;;;;;;;19.50;40.44;101975.65;108772;1254;66983;-82
2023/05/14 06:49:54;;;;;;;;;;;;;;;19.52;40.43;101974.59;108868;1254;125050;-82
2023/05/14 06:52:21;;;;;;;;;;;;;;;19.50;40.57;101973.14;109094;1254;59358;-82
2023/05/14 06:54:48;;;;;;;;;;;;;;;19.50;40.73;101972.79;108911;1254;124746;-83
2023/05/14 06:57:15;;;;;;;;;;;;;;;19.43;40.84;101970.95;108832;1254;73806;-83
2023/05/14 06:59:42;;;;;;;;;;;;;;;19.41;41.09;101970.59;108912;1254;67027;-83
2023/05/14 07:02:09;;;;;;;;;;;;;;;19.42;41.00;101970.23;108907;1257;127053;-83
2023/05/14 07:04:36;;;;;;;;;;;;;;;19.35;40.91;101974.98;108890;1254;59554;-83
2023/05/14 07:07:04;;;;;;;;;;;;;;;19.31;40.95;101974.59;108656;1257;124932;-83
2023/05/14 07:09:31;;;;;;;;;;;;;;;19.34;40.96;101973.55;108763;1257;73848;-83
2023/05/14 07:11:58;;;;;;;;;;;;;;;19.41;41.03;101969.35;108876;1254;68508;-83
2023/05/14 07:14:25;;;;;;;;;;;;;;;19.48;40.62;101964.95;108721;1256;125193;-82
2023/05/14 07:16:52;;;;;;;;;;;;;;;19.52;40.51;101963.72;108962;1256;59710;-83
2023/05/14 07:19:19;;;;;;;;;;;;;;;19.53;40.52;101966.76;108762;1257;124954;-84
2023/05/14 07:21:46;;;;;;;;;;;;;;;19.55;40.50;101965.36;108887;1270;74880;-91
2023/05/14 07:24:13;;;;;;;;;;;;;;;19.58;40.56;101966.45;108850;1257;66745;-92
2023/05/14 07:26:40;;;;;;;;;;;;;;;19.62;40.58;101966.65;108634;1260;125225;-92
2023/05/14 07:29:07;;;;;;;;;;;;;;;19.65;40.34;101962.39;108857;1261;59450;-91
2023/05/14 07:31:35;;;;;;;;;;;;;;;19.68;40.46;101955.64;108835;1254;124836;-92
2023/05/14 07:34:02;;;;;;;;;;;;;;;19.71;40.65;101956.74;108879;1254;74450;-91
2023/05/14 07:36:30;;;;;;;;;;;;;;;19.71;40.86;101952.48;108943;1254;124310;-92
2023/05/14 07:38:57;;;;;;;;;;;;;;;19.74;41.09;101953.41;108890;1253;72543;-83
2023/05/14 07:41:24;;;;;;;;;;;;;;;19.81;41.28;101946.33;109005;1256;59260;-83
2023/05/14 07:43:51;;;;;;;;;;;;;;;19.88;41.31;101942.44;108925;1270;125638;-82
2023/05/14 07:46:17;;;;;;;;;;;;;;;19.95;41.32;101939.98;109006;1254;75829;-83
2023/05/14 07:48:44;;;;;;;;;;;;;;;19.95;41.19;101938.38;108759;1260;125108;-83
2023/05/14 07:51:11;;;;;;;;;;;;;;;19.93;41.18;101936.61;108970;1254;71985;-83
2023/05/14 07:53:38;;;;;;;;;;;;;;;19.96;41.35;101936.60;108841;1255;59363;-83
2023/05/14 07:56:05;;;;;;;;;;;;;;;20.02;41.38;101934.67;108872;1256;124528;-83
2023/05/14 07:58:33;;;;;;;;;;;;;;;20.09;41.07;101938.46;108893;1258;74708;-83
2023/05/14 08:01:03;;;;;;;;;;;;;;;20.17;41.05;101936.17;108792;1256;125423;-83
2023/05/14 08:03:30;;;;;;;;;;;;;;;20.26;40.65;101940.13;108839;1256;71354;-85
2023/05/14 08:05:57;;;;;;;;;;;;;;;20.27;40.60;101938.01;108981;1265;59974;-83
2023/05/14 08:08:24;;;;;;;;;;;;;;;20.30;40.28;101935.52;108834;1254;125543;-84
2023/05/14 08:10:50;;;;;;;;;;;;;;;20.34;40.15;101938.55;108844;1256;74735;-83
2023/05/14 08:13:17;;;;;;;;;;;;;;;20.35;40.22;101936.78;108704;1256;125171;-84
2023/05/14 08:15:44;;;;;;;;;;;;;;;20.36;40.09;101931.42;108829;1260;73895;-85
2023/05/14 08:18:11;;;;;;;;;;;;;;;20.40;40.36;101931.62;108917;1257;59102;-92
2023/05/14 08:20:38;;;;;;;;;;;;;;;20.48;40.76;101929.51;108895;1255;125491;-83
2023/05/14 08:23:06;;;;;;;;;;;;;;;20.53;41.06;101929.34;108990;1254;74738;-84
2023/05/14 08:25:33;;;;;;;;;;;;;;;20.54;41.22;101929.00;108712;1256;124678;-84
2023/05/14 08:28:00;;;;;;;;;;;;;;;20.60;41.25;101926.16;109043;1254;73235;-84
2023/05/14 08:30:27;;;;;;;;;;;;;;;20.68;41.10;101923.70;108855;1254;125389;-84
2023/05/14 08:32:54;;;;;;;;;;;;;;;20.76;40.85;101923.16;109171;1254;59119;-84
2023/05/14 08:35:21;;;;;;;;;;;;;;;20.80;40.57;101917.64;109038;1255;74533;-85
2023/05/14 08:37:49;;;;;;;;;;;;;;;20.77;40.39;101912.11;108721;1256;125910;-84
2023/05/14 08:40:16;;;;;;;;;;;;;;;20.78;40.08;101910.69;108715;1256;73202;-84
2023/05/14 08:42:43;;;;;;;;;;;;;;;20.85;40.37;101907.31;108676;1254;124877;-84
2023/05/14 08:45:20;;;;;;;;;;;;;;;20.93;40.53;101905.35;108823;1254;60982;-84
2023/05/14 08:47:49;;;;;;;;;;;;;;;20.98;39.83;101901.79;108755;1256;73429;-85
2023/05/14 08:50:16;;;;;;;;;;;;;;;21.04;39.67;101900.55;108848;1254;124772;-85
2023/05/14 08:52:43;;;;;;;;;;;;;;;21.10;39.82;101894.11;108812;1254;73189;-83
2023/05/14 08:55:10;;;;;;;;;;;;;;;21.18;39.69;101896.26;108767;1254;125784;-84
2023/05/14 08:57:37;;;;;;;;;;;;;;;21.25;39.58;101891.07;108888;1257;59491;-85
2023/05/14 09:00:10;;;;;;;;;;;;;;;21.31;39.17;101888.92;108889;1255;75249;-85
2023/05/14 09:02:38;;;;;;;;;;;;;;;21.33;38.77;101884.10;108694;1254;124618;-84
2023/05/14 09:05:06;;;;;;;;;;;;;;;21.40;38.56;101888.02;108825;1254;71435;-84
2023/05/14 09:07:33;;;;;;;;;;;;;;;21.44;38.24;101881.95;108620;1257;124192;-84
2023/05/14 09:10:00;;;;;;;;;;;;;;;21.49;38.26;101880.89;108768;1256;61281;-84
2023/05/14 09:12:27;;;;;;;;;;;;;;;21.54;37.67;101879.63;108682;1270;124521;-84
2023/05/14 09:15:05;;;;;;;;;;;;;;;21.56;37.05;101877.64;108963;1254;66536;-84
2023/05/14 09:17:32;;;;;;;;;;;;;;;21.58;36.85;101874.08;108990;1255;71548;-83
2023/05/14 09:20:07;;;;;;;;;;;;;;;21.62;36.73;101866.73;108775;1256;125970;-84
2023/05/14 09:22:46;;;;;;;;;;;;;;;21.61;36.39;101865.48;108893;1257;59823;-85
2023/05/14 09:25:13;;;;;;;;;;;;;;;21.62;36.27;101865.50;108761;1256;124293;-84
2023/05/14 09:27:40;;;;;;;;;;;;;;;21.66;36.32;101862.09;108751;1256;66587;-84
2023/05/14 09:30:20;;;;;;;;;;;;;;;21.70;36.52;101854.74;108906;1259;72507;-83
2023/05/14 09:32:56;;;;;;;;;;;;;;;21.81;36.93;101850.42;109109;1256;59322;-82
2023/05/14 09:35:33;;;;;;;;;;;;;;;21.93;36.82;101851.98;109077;1255;60728;-83
2023/05/14 09:38:00;;;;;;;;;;;;;;;22.01;36.58;101851.23;108738;1257;124347;-83
2023/05/14 09:40:33;;;;;;;;;;;;;;;22.01;36.25;101845.69;108907;1257;67785;-84
2023/05/14 09:43:00;;;;;;;;;;;;;;;22.01;36.28;101843.18;108683;1266;124685;-84
2023/05/14 09:45:38;;;;;;;;;;;;;;;22.02;36.21;101838.35;108869;1256;59102;-84
2023/05/14 09:48:12;;;;;;;;;;;;;;;22.08;35.68;101836.70;108960;1257;59511;-83
2023/05/14 09:50:57;;;;;;;;;;;;;;;22.13;35.36;101832.39;108966;1255;125115;-83
2023/05/14 09:53:25;;;;;;;;;;;;;;;22.16;35.48;101823.96;109067;1259;66960;-83
2023/05/14 09:55:51;;;;;;;;;;;;;;;22.22;35.66;101819.65;108939;1256;126541;-83
2023/05/14 09:58:21;;;;;;;;;;;;;;;22.25;35.09;101820.36;108913;1254;59507;-82
2023/05/14 10:00:50;;;;;;;;;;;;;;;22.24;34.69;101822.33;108899;1253;125777;-83
2023/05/14 10:03:17;;;;;;;;;;;;;;;22.25;34.36;101816.78;108860;1254;75493;-82
2023/05/14 10:05:48;;;;;;;;;;;;;;;22.30;34.53;101817.83;108822;1256;65616;-82
2023/05/14 10:08:32;;;;;;;;;;;;;;;22.37;34.39;101813.67;108742;1257;124843;-83
2023/05/14 10:10:59;;;;;;;;;;;;;;;22.41;34.18;101803.11;108858;1255;59408;-82
2023/05/14 10:13:48;;;;;;;;;;;;;;;22.45;34.37;101805.04;108829;1270;125872;-82
2023/05/14 10:16:36;;;;;;;;;;;;;;;22.55;34.47;101806.58;108890;1254;74165;-82
2023/05/14 10:19:12;;;;;;;;;;;;;;;22.63;34.04;101803.83;108758;1254;125116;-82
2023/05/14 10:21:49;;;;;;;;;;;;;;;22.68;34.06;101793.77;108887;1260;71379;-82
2023/05/14 10:24:27;;;;;;;;;;;;;;;22.76;34.40;101791.36;108882;1257;59373;-83
2023/05/14 10:26:54;;;;;;;;;;;;;;;22.86;34.25;101791.98;108785;1259;124405;-83
2023/05/14 10:29:32;;;;;;;;;;;;;;;22.95;34.30;101786.89;108767;1254;73872;-82
2023/05/14 10:32:11;;;;;;;;;;;;;;;23.05;34.09;101783.41;108727;1270;124194;-82
2023/05/14 10:34:45;;;;;;;;;;;;;;;23.08;33.74;101778.73;108924;1254;72190;-82
2023/05/14 10:37:13;;;;;;;;;;;;;;;23.13;33.37;101775.81;108965;1254;125658;-82
2023/05/14 10:39:49;;;;;;;;;;;;;;;23.17;32.89;101781.14;108873;1254;60166;-82
2023/05/14 10:42:17;;;;;;;;;;;;;;;23.27;32.72;101777.45;108991;1257;74459;-82
2023/05/14 10:45:07;;;;;;;;;;;;;;;23.44;32.92;101764.90;108816;1256;124727;-82
2023/05/14 10:47:34;;;;;;;;;;;;;;;23.79;33.18;101762.84;108845;1254;72241;-82
2023/05/14 10:50:02;;;;;;;;;;;;;;;24.19;32.77;101755.98;108718;1272;125428;-82
2023/05/14 10:52:29;;;;;;;;;;;;;;;24.53;32.47;101754.39;108794;1254;59536;-91
2023/05/14 10:54:56;;;;;;;;;;;;;;;24.74;31.94;101751.34;108681;1254;125734;-84
2023/05/14 10:57:25;;;;;;;;;;;;;;;24.88;31.62;101756.48;108830;1255;67505;-84
2023/05/14 10:59:53;;;;;;;;;;;;;;;25.00;31.18;101756.60;109054;1254;73357;-83
2023/05/14 11:02:30;;;;;;;;;;;;;;;25.13;31.04;101759.77;108710;1256;125989;-83
2023/05/14 11:04:58;;;;;;;;;;;;;;;25.20;31.90;101763.77;108999;1257;60159;-83
2023/05/14 11:07:31;;;;;;;;;;;;;;;25.17;32.48;101762.74;108724;1256;124217;-83
2023/05/14 11:10:08;;;;;;;;;;;;;;;25.15;32.67;101762.07;108913;1254;65776;-83
2023/05/14 11:12:36;;;;;;;;;;;;;;;24.98;32.98;101757.52;108905;1256;124219;-83
2023/05/14 11:15:05;;;;;;;;;;;;;;;24.84;33.52;101758.68;108832;1257;59164;-84
2023/05/14 11:17:35;;;;;;;;;;;;;;;24.64;33.52;101751.34;108837;1257;60556;-89
2023/05/14 11:20:08;;;;;;;;;;;;;;;24.54;34.12;101749.70;108714;1264;125796;-83
2023/05/14 11:22:36;;;;;;;;;;;;;;;24.46;34.21;101755.38;108768;1254;68625;-83
2023/05/14 11:25:05;;;;;;;;;;;;;;;24.17;34.22;101751.91;108655;1255;124933;-83
2023/05/14 11:27:38;;;;;;;;;;;;;;;23.79;34.13;101755.67;108766;1254;60036;-83
2023/05/14 11:30:11;;;;;;;;;;;;;;;23.53;34.62;101734.33;108787;1255;60274;-83
2023/05/14 11:32:40;;;;;;;;;;;;;;;23.53;35.13;101733.60;108778;1254;124991;-83
2023/05/14 11:35:08;;;;;;;;;;;;;;;23.54;35.12;101735.39;108881;1253;67805;-84
2023/05/14 11:37:35;;;;;;;;;;;;;;;23.41;35.13;101736.64;108803;1254;124481;-85
2023/05/14 11:40:06;;;;;;;;;;;;;;;23.27;35.33;101735.71;109072;1255;59158;-82
2023/05/14 11:42:33;;;;;;;;;;;;;;;23.16;35.26;101732.64;108776;1253;124488;-84
2023/05/14 11:45:00;;;;;;;;;;;;;;;22.98;35.22;101722.96;108993;1256;74606;-84
2023/05/14 11:47:28;;;;;;;;;;;;;;;22.95;35.45;101724.23;108970;1257;67049;-83
2023/05/14 11:49:55;;;;;;;;;;;;;;;23.04;35.33;101723.25;108659;1257;124372;-83
2023/05/14 11:52:22;;;;;;;;;;;;;;;23.20;35.17;101722.39;108803;1256;59507;-83
2023/05/14 11:54:49;;;;;;;;;;;;;;;23.33;34.97;101718.45;108909;1256;124761;-83
2023/05/14 11:57:20;;;;;;;;;;;;;;;23.31;34.53;101717.23;108832;1270;75292;-83
2023/05/14 11:59:47;;;;;;;;;;;;;;;23.11;34.52;101713.52;108779;1262;67379;-83
2023/05/14 12:02:15;;;;;;;;;;;;;;;22.93;34.45;101715.13;108780;1254;124981;-83
2023/05/14 12:04:42;;;;;;;;;;;;;;;22.85;34.42;101712.70;108884;1253;60147;-83
2023/05/14 12:07:10;;;;;;;;;;;;;;;22.74;34.50;101713.36;108776;1260;124834;-83
2023/05/14 12:09:39;;;;;;;;;;;;;;;22.58;34.73;101710.84;108875;1254;73935;-83
2023/05/14 12:12:10;;;;;;;;;;;;;;;22.50;35.19;101711.82;108837;1254;67582;-82
2023/05/14 12:14:38;;;;;;;;;;;;;;;22.53;35.29;101713.39;108662;1257;124498;-83
2023/05/14 12:17:21;;;;;;;;;;;;;;;22.49;35.01;101708.23;108676;1256;220110;-83
2023/05/14 12:19:48;;;;;;;;;;;;;;;22.33;34.83;101706.77;108802;1254;124797;-83
2023/05/14 12:22:16;;;;;;;;;;;;;;;22.16;35.08;101699.02;108990;1256;74702;-83
2023/05/14 12:24:43;;;;;;;;;;;;;;;22.02;35.24;101693.59;108739;1257;124363;-87
2023/05/14 12:27:13;;;;;;;;;;;;;;;21.90;35.40;101685.80;108841;1255;71932;-85
2023/05/14 12:29:41;;;;;;;;;;;;;;;21.83;35.49;101683.88;108814;1262;59214;-84